Time;durP1;ratioP1;P1;durP2;ratioP2;P2;SDS_P1;SDS_P2;PMS_P1;PMS_P2;Temp;Humidity;BMP_temperature;BMP_pressure;BME280_temperature;BME280_humidity;BME280_pressure;Samples;Min_cycle;Max_cycle;Signal;HPM_P1;HPM_P2
2022/06/30 00:01:27;;;;;;;5.93;5.35;;;21.00;99.90;;;;;;5044501;28;20658;-62
2022/06/30 00:03:53;;;;;;;6.97;5.32;;;21.00;99.90;;;;;;5042490;28;20281;-62
2022/06/30 00:06:19;;;;;;;10.10;5.95;;;20.90;99.90;;;;;;5025488;28;20057;-62
2022/06/30 00:08:44;;;;;;;7.65;5.32;;;20.90;99.90;;;;;;5044801;28;20041;-62
2022/06/30 00:11:10;;;;;;;7.28;6.22;;;20.80;99.90;;;;;;5044292;28;20068;-61
2022/06/30 00:13:40;;;;;;;6.90;6.20;;;20.70;99.90;;;;;;5026573;28;20049;-62
2022/06/30 00:16:08;;;;;;;5.95;5.45;;;20.60;99.90;;;;;;5042440;28;20118;-61
2022/06/30 00:18:34;;;;;;;7.95;6.00;;;20.50;99.90;;;;;;5042083;28;20183;-62
2022/06/30 00:21:01;;;;;;;6.38;5.38;;;20.30;99.90;;;;;;5042151;28;20105;-61
2022/06/30 00:23:27;;;;;;;8.32;5.78;;;20.20;99.90;;;;;;5043341;28;20088;-62
2022/06/30 00:25:53;;;;;;;7.50;5.35;;;19.90;99.90;;;;;;5043026;28;20049;-61
2022/06/30 00:28:19;;;;;;;7.90;6.35;;;19.90;99.90;;;;;;5079024;28;20045;-61
2022/06/30 00:30:49;;;;;;;7.95;6.18;;;19.80;99.90;;;;;;5045859;28;20104;-62
2022/06/30 00:33:16;;;;;;;7.85;5.55;;;19.60;99.90;;;;;;5045478;28;20045;-61
2022/06/30 00:35:42;;;;;;;5.68;5.03;;;19.50;99.90;;;;;;5029228;28;20057;-62
2022/06/30 00:38:07;;;;;;;7.32;5.30;;;19.60;99.90;;;;;;5046959;28;20049;-61
2022/06/30 00:40:44;;;;;;;6.00;5.07;;;19.60;99.90;;;;;;5045587;28;20137;-61
2022/06/30 00:43:10;;;;;;;6.00;5.40;;;19.60;99.90;;;;;;5046674;28;20077;-61
2022/06/30 00:45:44;;;;;;;6.70;4.93;;;19.80;99.90;;;;;;5078474;28;20088;-61
2022/06/30 00:48:10;;;;;;;5.70;5.05;;;19.70;99.90;;;;;;5052924;28;20048;-61
2022/06/30 00:50:37;;;;;;;6.18;4.82;;;19.90;99.90;;;;;;5048036;28;20041;-61
2022/06/30 00:53:04;;;;;;;6.45;4.60;;;19.90;99.90;;;;;;5078474;28;20061;-61
2022/06/30 00:55:31;;;;;;;5.80;4.93;;;19.90;99.90;;;;;;5045883;28;20048;-61
2022/06/30 00:58:01;;;;;;;7.45;5.10;;;19.90;99.90;;;;;;5047822;28;20501;-62
2022/06/30 01:00:29;;;;;;;6.43;5.25;;;19.90;99.90;;;;;;5045381;28;20083;-62
2022/06/30 01:02:55;;;;;;;7.15;4.70;;;19.90;99.90;;;;;;5046022;28;20083;-61
2022/06/30 01:05:23;;;;;;;9.55;4.80;;;19.90;99.90;;;;;;5043920;28;20049;-61
2022/06/30 01:07:49;;;;;;;6.88;4.47;;;19.90;99.90;;;;;;5045824;28;20068;-62
2022/06/30 01:12:59;;;;;;;5.85;4.90;;;19.90;99.90;;;;;;5044877;28;20049;-61
2022/06/30 01:15:25;;;;;;;5.22;4.72;;;19.80;99.90;;;;;;5044887;28;20041;-61
2022/06/30 01:17:51;;;;;;;6.85;4.50;;;19.80;99.90;;;;;;5044884;28;20056;-62
2022/06/30 01:20:24;;;;;;;5.57;4.68;;;19.90;99.90;;;;;;5046033;28;20064;-61
2022/06/30 01:22:49;;;;;;;5.70;4.43;;;19.90;99.90;;;;;;5045037;28;20060;-61
2022/06/30 01:25:15;;;;;;;5.57;5.03;;;19.90;99.90;;;;;;5079292;28;20053;-61
2022/06/30 01:27:41;;;;;;;5.82;4.60;;;19.90;99.90;;;;;;5046108;28;20045;-61
2022/06/30 01:30:07;;;;;;;7.30;5.10;;;19.90;99.90;;;;;;5046477;28;20106;-61
2022/06/30 01:32:32;;;;;;;5.97;4.40;;;19.90;99.90;;;;;;5045995;28;20041;-61
2022/06/30 01:34:58;;;;;;;4.97;4.38;;;19.90;99.90;;;;;;5044521;28;20068;-61
2022/06/30 01:37:25;;;;;;;8.57;5.00;;;20.00;99.90;;;;;;5044848;28;20104;-61
2022/06/30 01:39:51;;;;;;;7.00;5.20;;;20.00;99.90;;;;;;5044819;28;20101;-61
2022/06/30 01:42:17;;;;;;;5.82;4.60;;;20.00;99.90;;;;;;5044381;28;20065;-61
2022/06/30 01:44:42;;;;;;;5.38;4.85;;;20.10;99.90;;;;;;5045642;28;20053;-61
2022/06/30 01:47:09;;;;;;;5.38;4.82;;;20.00;99.90;;;;;;5032515;28;20030;-62
2022/06/30 01:49:35;;;;;;;7.18;5.10;;;20.10;99.90;;;;;;5049428;28;20100;-61
2022/06/30 01:52:01;;;;;;;7.18;5.32;;;20.10;99.90;;;;;;5041860;28;20057;-61
2022/06/30 01:54:26;;;;;;;6.00;4.60;;;20.10;99.90;;;;;;5037187;28;20398;-61
2022/06/30 01:56:52;;;;;;;6.15;4.28;;;20.10;99.90;;;;;;5077482;28;20053;-61
2022/06/30 01:59:18;;;;;;;5.22;4.40;;;20.10;99.90;;;;;;5044681;28;20056;-61
2022/06/30 02:01:44;;;;;;;6.10;4.65;;;20.10;99.90;;;;;;5028191;28;20402;-61
2022/06/30 02:06:53;;;;;;;5.05;4.55;;;20.10;99.90;;;;;;5039574;28;20092;-61
2022/06/30 02:09:19;;;;;;;5.88;4.45;;;20.10;99.90;;;;;;5044247;28;20042;-61
2022/06/30 02:11:45;;;;;;;5.85;4.55;;;20.10;99.90;;;;;;5044456;28;20108;-61
2022/06/30 02:14:11;;;;;;;6.57;4.50;;;20.10;99.90;;;;;;5044770;28;20045;-61
2022/06/30 02:16:36;;;;;;;5.90;4.22;;;20.00;99.90;;;;;;5030457;28;20042;-61
2022/06/30 02:19:03;;;;;;;6.38;4.40;;;19.90;99.90;;;;;;5043728;28;20053;-62
2022/06/30 02:21:28;;;;;;;5.00;4.50;;;19.90;99.90;;;;;;5076788;28;20056;-61
2022/06/30 02:23:54;;;;;;;8.65;4.90;;;19.90;99.90;;;;;;5043618;28;20042;-61
2022/06/30 02:26:20;;;;;;;6.22;4.60;;;19.80;99.90;;;;;;5043635;28;20037;-61
2022/06/30 02:28:46;;;;;;;7.10;4.32;;;19.80;99.90;;;;;;5044674;28;20080;-62
2022/06/30 02:31:12;;;;;;;4.53;4.13;;;19.80;99.90;;;;;;5044852;28;20042;-62
2022/06/30 02:33:41;;;;;;;7.68;4.72;;;19.70;99.90;;;;;;5044037;28;20517;-61
2022/06/30 02:36:07;;;;;;;5.60;4.23;;;19.70;99.90;;;;;;5044648;28;20091;-61
2022/06/30 02:38:34;;;;;;;4.97;4.32;;;19.70;99.90;;;;;;5045329;28;20435;-62
2022/06/30 02:40:59;;;;;;;6.47;4.28;;;19.80;99.90;;;;;;5077320;28;20049;-62
2022/06/30 02:43:25;;;;;;;4.40;3.83;;;19.80;99.90;;;;;;5044256;28;20132;-62
2022/06/30 02:45:51;;;;;;;6.72;4.18;;;19.80;99.90;;;;;;5010857;28;20049;-61
2022/06/30 02:48:18;;;;;;;5.15;4.50;;;19.70;99.90;;;;;;5040428;28;20072;-61
2022/06/30 02:50:44;;;;;;;5.13;4.32;;;19.70;99.90;;;;;;5031712;28;20046;-61
2022/06/30 02:53:11;;;;;;;5.47;4.65;;;19.70;99.90;;;;;;5075234;28;20048;-61
2022/06/30 02:55:37;;;;;;;5.80;4.45;;;19.60;99.90;;;;;;5077899;28;20085;-61
2022/06/30 02:58:03;;;;;;;7.03;4.40;;;19.70;99.90;;;;;;5045501;28;20038;-61
2022/06/30 03:00:29;;;;;;;5.28;4.45;;;19.60;99.90;;;;;;5043482;28;20462;-62
2022/06/30 03:02:57;;;;;;;5.63;4.80;;;19.50;99.90;;;;;;5076403;28;20049;-61
2022/06/30 03:05:23;;;;;;;6.03;4.88;;;19.60;99.90;;;;;;5072729;28;20120;-61
2022/06/30 03:07:49;;;;;;;7.57;5.45;;;19.50;99.90;;;;;;5042547;28;20053;-62
2022/06/30 03:10:14;;;;;;;5.70;5.20;;;19.40;99.90;;;;;;5044154;28;20569;-61
2022/06/30 03:12:40;;;;;;;5.25;4.72;;;19.30;99.90;;;;;;5044153;28;20048;-61
2022/06/30 03:15:06;;;;;;;7.13;5.30;;;19.30;99.90;;;;;;5042531;28;20509;-61
2022/06/30 03:17:32;;;;;;;5.70;5.18;;;19.20;99.90;;;;;;5043400;28;20833;-61
2022/06/30 03:19:58;;;;;;;5.40;4.85;;;19.10;99.90;;;;;;5044012;28;20061;-62
2022/06/30 03:22:24;;;;;;;6.20;5.60;;;19.00;99.90;;;;;;5044969;28;20052;-61
2022/06/30 03:24:50;;;;;;;6.10;5.50;;;19.00;99.90;;;;;;5076261;28;20056;-61
2022/06/30 03:27:16;;;;;;;6.13;5.53;;;18.90;99.90;;;;;;5043083;28;20049;-61
2022/06/30 03:29:41;;;;;;;8.38;5.45;;;18.80;99.90;;;;;;5044270;28;20052;-61
2022/06/30 03:32:07;;;;;;;6.72;5.97;;;18.80;99.90;;;;;;5042938;28;20136;-61
2022/06/30 03:34:33;;;;;;;6.43;5.82;;;18.80;99.90;;;;;;5044243;28;20109;-61
2022/06/30 03:36:58;;;;;;;6.43;5.82;;;18.80;99.90;;;;;;5043966;28;20060;-61
2022/06/30 03:39:24;;;;;;;6.35;5.63;;;18.70;99.90;;;;;;5076926;28;20088;-61
2022/06/30 03:41:50;;;;;;;6.28;5.78;;;18.60;99.90;;;;;;5044761;28;20038;-61
2022/06/30 03:44:16;;;;;;;7.15;5.63;;;18.60;99.90;;;;;;5043678;28;20036;-61
2022/06/30 03:46:42;;;;;;;8.15;6.40;;;18.60;99.90;;;;;;5076153;28;20406;-62
2022/06/30 03:49:08;;;;;;;7.65;5.78;;;18.60;99.90;;;;;;5051899;28;20060;-61
2022/06/30 03:51:34;;;;;;;6.57;5.97;;;18.50;99.90;;;;;;5042653;28;20060;-61
2022/06/30 03:53:59;;;;;;;6.88;6.22;;;18.50;99.90;;;;;;5059386;28;20053;-61
2022/06/30 03:56:25;;;;;;;6.97;5.88;;;18.40;99.90;;;;;;5075499;28;20037;-61
2022/06/30 03:58:51;;;;;;;7.13;6.43;;;18.40;99.90;;;;;;5044239;28;20096;-61
2022/06/30 04:01:17;;;;;;;7.28;6.53;;;18.40;99.90;;;;;;5027492;28;20056;-61
2022/06/30 04:03:43;;;;;;;8.02;6.60;;;18.30;99.90;;;;;;5079758;28;20041;-61
2022/06/30 04:06:08;;;;;;;8.60;6.75;;;18.30;99.90;;;;;;5042790;28;20064;-62
2022/06/30 04:08:34;;;;;;;8.18;6.68;;;18.30;99.90;;;;;;5047031;28;20104;-61
2022/06/30 04:11:00;;;;;;;8.45;7.55;;;18.30;99.90;;;;;;5032890;28;20057;-61
2022/06/30 04:13:25;;;;;;;7.00;6.25;;;18.40;99.90;;;;;;5047465;28;20045;-61
2022/06/30 04:15:51;;;;;;;7.80;6.30;;;18.30;99.90;;;;;;5080332;28;20049;-61
2022/06/30 04:18:17;;;;;;;10.15;6.53;;;18.40;99.90;;;;;;5047445;28;20890;-62
2022/06/30 04:20:42;;;;;;;11.73;7.03;;;18.40;99.90;;;;;;5044093;28;20492;-61
2022/06/30 04:23:08;;;;;;;7.00;6.32;;;18.40;99.90;;;;;;5046104;28;20128;-61
2022/06/30 04:25:34;;;;;;;7.55;6.75;;;18.40;99.90;;;;;;5046038;28;20049;-61
2022/06/30 04:28:00;;;;;;;7.45;6.80;;;18.40;99.90;;;;;;5048325;28;20041;-61
2022/06/30 04:33:18;;;;;;;7.72;6.15;;;18.40;99.90;;;;;;5029853;28;20049;-62
2022/06/30 04:35:44;;;;;;;9.85;6.57;;;18.50;99.90;;;;;;5045458;28;20105;-61
2022/06/30 04:38:09;;;;;;;6.30;5.70;;;18.60;99.90;;;;;;5046930;28;20481;-62
2022/06/30 04:43:19;;;;;;;7.30;6.30;;;18.70;99.90;;;;;;5042645;28;20124;-61
2022/06/30 04:45:45;;;;;;;6.90;6.20;;;18.60;99.90;;;;;;5041450;28;20050;-62
2022/06/30 04:48:11;;;;;;;7.20;6.43;;;18.70;99.90;;;;;;5046358;28;20085;-61
2022/06/30 04:50:38;;;;;;;6.85;6.00;;;18.70;99.90;;;;;;5046311;28;20045;-61
2022/06/30 04:53:04;;;;;;;6.43;5.80;;;18.70;99.90;;;;;;5079277;28;20109;-61
2022/06/30 04:55:29;;;;;;;10.18;6.25;;;18.80;99.90;;;;;;5046685;28;20045;-61
2022/06/30 04:57:55;;;;;;;6.72;6.15;;;18.80;99.90;;;;;;5046976;28;20049;-61
2022/06/30 05:00:21;;;;;;;7.45;6.65;;;18.90;99.90;;;;;;5046535;28;20045;-61
2022/06/30 05:02:46;;;;;;;7.05;6.35;;;18.90;99.90;;;;;;5078206;28;20128;-61
2022/06/30 05:05:12;;;;;;;9.73;7.18;;;18.90;99.90;;;;;;5045673;28;20411;-61
2022/06/30 05:07:38;;;;;;;10.82;7.18;;;19.00;99.90;;;;;;5045464;28;20120;-61
2022/06/30 05:10:04;;;;;;;9.98;6.53;;;19.00;99.90;;;;;;5045853;28;20041;-61
2022/06/30 05:12:30;;;;;;;7.57;6.80;;;19.10;99.90;;;;;;5044584;28;20053;-61
2022/06/30 05:14:55;;;;;;;7.43;6.72;;;19.10;99.90;;;;;;5045122;28;20045;-63
2022/06/30 05:17:21;;;;;;;8.60;6.88;;;19.10;99.90;;;;;;5034285;28;20077;-61
2022/06/30 05:19:47;;;;;;;7.70;6.90;;;19.10;99.90;;;;;;5045476;28;20065;-61
2022/06/30 05:22:13;;;;;;;7.55;6.82;;;19.20;99.90;;;;;;5045604;28;20049;-61
2022/06/30 05:27:23;;;;;;;8.38;7.28;;;19.10;99.90;;;;;;5045028;28;20107;-61
2022/06/30 05:29:48;;;;;;;8.75;7.57;;;19.10;99.90;;;;;;5045184;28;20141;-61
2022/06/30 05:32:14;;;;;;;8.65;7.63;;;19.10;99.90;;;;;;5042994;28;20048;-61
2022/06/30 05:34:40;;;;;;;10.23;7.35;;;19.20;99.90;;;;;;5042887;28;20053;-61
2022/06/30 05:37:06;;;;;;;8.02;7.22;;;19.20;99.90;;;;;;5044016;28;20053;-61
2022/06/30 05:39:32;;;;;;;8.10;7.35;;;19.30;99.90;;;;;;5043558;28;20397;-61
2022/06/30 05:42:02;;;;;;;8.15;7.45;;;19.30;99.90;;;;;;5043656;28;20049;-61
2022/06/30 05:44:28;;;;;;;;;;;19.20;99.90;;;;;;5075933;28;20041;-61
2022/06/30 05:46:54;;;;;;;8.95;7.30;;;19.20;99.90;;;;;;5073865;28;19925;-61
2022/06/30 05:49:24;;;;;;;7.65;6.85;;;19.30;99.90;;;;;;5044924;28;20417;-61
2022/06/30 05:51:49;;;;;;;10.60;7.50;;;19.40;99.90;;;;;;5045272;28;20038;-61
2022/06/30 05:54:15;;;;;;;8.27;7.47;;;19.40;99.90;;;;;;5043600;28;20088;-61
2022/06/30 05:56:41;;;;;;;9.05;8.18;;;19.50;99.90;;;;;;5041687;28;20045;-61
2022/06/30 05:59:06;;;;;;;10.57;7.50;;;19.50;99.90;;;;;;5043898;28;20045;-61
2022/06/30 06:01:32;;;;;;;8.50;7.53;;;19.50;99.90;;;;;;5043386;28;20048;-61
2022/06/30 06:03:58;;;;;;;7.80;7.10;;;19.50;99.90;;;;;;5043707;28;20041;-61
2022/06/30 06:06:23;;;;;;;7.95;7.25;;;19.70;99.90;;;;;;5038699;28;20120;-62
2022/06/30 06:08:49;;;;;;;8.10;7.20;;;19.60;99.90;;;;;;5043305;28;20099;-62
2022/06/30 06:11:15;;;;;;;9.48;7.55;;;19.70;99.90;;;;;;5042795;28;20041;-62
2022/06/30 06:13:41;;;;;;;9.15;7.60;;;19.70;99.90;;;;;;5043254;28;20055;-61
2022/06/30 06:16:06;;;;;;;9.10;7.78;;;19.90;99.90;;;;;;5022793;28;20047;-61
2022/06/30 06:18:33;;;;;;;8.40;6.68;;;19.90;99.90;;;;;;5044583;28;20041;-61
2022/06/30 06:20:58;;;;;;;7.53;6.50;;;20.00;99.90;;;;;;5076938;28;20041;-64
2022/06/30 06:23:24;;;;;;;7.10;6.35;;;20.00;99.90;;;;;;5042775;28;20115;-64
2022/06/30 06:25:51;;;;;;;8.07;6.68;;;20.00;99.90;;;;;;5044042;28;20041;-64
2022/06/30 06:31:01;;;;;;;8.10;7.30;;;20.10;99.90;;;;;;5041042;28;20056;-63
2022/06/30 06:33:27;;;;;;;8.15;7.32;;;20.10;99.90;;;;;;5008665;28;20501;-63
2022/06/30 06:35:52;;;;;;;8.43;7.07;;;20.20;99.90;;;;;;5042987;28;20080;-63
2022/06/30 06:38:18;;;;;;;8.90;6.20;;;20.30;99.90;;;;;;5040773;28;20056;-63
2022/06/30 06:40:44;;;;;;;8.23;7.43;;;20.30;99.90;;;;;;5028118;28;20297;-61
2022/06/30 06:43:09;;;;;;;7.97;6.63;;;20.40;99.90;;;;;;5038888;28;20060;-61
2022/06/30 06:45:35;;;;;;;9.13;7.07;;;20.40;99.90;;;;;;5057361;28;20052;-61
2022/06/30 06:48:01;;;;;;;7.78;7.07;;;20.50;99.90;;;;;;5040718;28;20075;-61
2022/06/30 06:50:26;;;;;;;7.70;6.93;;;20.60;99.90;;;;;;5036562;28;20080;-61
2022/06/30 06:52:52;;;;;;;7.07;6.47;;;20.60;99.90;;;;;;5026679;28;20056;-61
2022/06/30 06:55:19;;;;;;;8.75;7.40;;;20.60;99.90;;;;;;5040753;28;20445;-61
2022/06/30 06:57:45;;;;;;;7.80;7.00;;;20.70;99.90;;;;;;5061127;28;20060;-61
2022/06/30 07:00:12;;;;;;;8.32;7.30;;;20.80;99.90;;;;;;5056734;28;20048;-61
2022/06/30 07:02:39;;;;;;;13.32;8.25;;;20.80;99.90;;;;;;5026975;28;20076;-61
2022/06/30 07:05:05;;;;;;;8.85;7.13;;;20.90;99.90;;;;;;5034331;28;20045;-61
2022/06/30 07:07:31;;;;;;;7.95;7.25;;;20.90;99.90;;;;;;5026688;28;20079;-61
2022/06/30 07:09:57;;;;;;;7.72;6.97;;;20.90;99.90;;;;;;5033327;28;20128;-61
2022/06/30 07:12:22;;;;;;;7.20;6.50;;;21.00;99.90;;;;;;5028972;28;20064;-60
2022/06/30 07:14:49;;;;;;;8.35;7.53;;;21.00;99.90;;;;;;5041661;28;20046;-61
2022/06/30 07:17:15;;;;;;;8.85;7.95;;;21.10;99.90;;;;;;5019102;28;20111;-60
2022/06/30 07:19:42;;;;;;;7.93;7.22;;;21.20;99.90;;;;;;5036218;28;20065;-61
2022/06/30 07:22:08;;;;;;;9.82;8.00;;;21.10;99.90;;;;;;5026087;28;20847;-60
2022/06/30 07:24:34;;;;;;;8.73;7.05;;;21.20;99.90;;;;;;5038803;28;20118;-60
2022/06/30 07:27:00;;;;;;;9.23;8.25;;;21.30;99.90;;;;;;5046276;28;20072;-61
2022/06/30 07:29:26;;;;;;;8.27;7.43;;;21.20;99.90;;;;;;5036167;28;20053;-61
2022/06/30 07:31:53;;;;;;;8.77;7.88;;;21.30;99.90;;;;;;5028651;28;20070;-61
2022/06/30 07:34:19;;;;;;;7.50;6.53;;;21.40;99.90;;;;;;5036354;28;20137;-61
2022/06/30 07:36:45;;;;;;;7.95;7.25;;;21.50;99.90;;;;;;5032943;28;20069;-61
2022/06/30 07:39:11;;;;;;;9.38;7.47;;;21.50;99.90;;;;;;5037894;28;20465;-61
2022/06/30 07:41:37;;;;;;;9.93;7.82;;;21.50;99.90;;;;;;5033721;28;20041;-61
2022/06/30 07:44:03;;;;;;;7.30;6.70;;;21.60;99.90;;;;;;5050768;28;20049;-61
2022/06/30 07:46:29;;;;;;;8.48;7.60;;;21.70;99.90;;;;;;5038881;28;20148;-61
2022/06/30 07:48:54;;;;;;;8.70;7.68;;;21.70;99.90;;;;;;5058773;28;20079;-61
2022/06/30 07:51:20;;;;;;;8.43;7.00;;;21.70;99.90;;;;;;5050056;28;20388;-62
2022/06/30 07:53:47;;;;;;;9.23;8.05;;;21.80;99.90;;;;;;5046726;28;20041;-62
2022/06/30 07:56:13;;;;;;;9.40;7.57;;;21.80;99.90;;;;;;5051827;28;20037;-62
2022/06/30 07:58:39;;;;;;;9.45;8.55;;;21.90;99.90;;;;;;5051368;28;20045;-62
2022/06/30 08:01:04;;;;;;;9.82;7.90;;;22.00;99.90;;;;;;5028775;28;20625;-63
2022/06/30 08:03:30;;;;;;;9.23;8.40;;;22.00;99.90;;;;;;5016949;28;20053;-62
2022/06/30 08:05:56;;;;;;;10.00;7.90;;;22.10;99.90;;;;;;5040680;28;20026;-61
2022/06/30 08:08:22;;;;;;;8.90;7.93;;;22.10;99.90;;;;;;5046537;28;20083;-62
2022/06/30 08:10:47;;;;;;;9.95;9.05;;;22.10;99.90;;;;;;5041417;28;20053;-61
2022/06/30 08:13:13;;;;;;;9.95;9.05;;;22.30;99.90;;;;;;5033621;28;20044;-61
2022/06/30 08:15:39;;;;;;;11.90;9.48;;;22.30;99.90;;;;;;5040192;28;20042;-61
2022/06/30 08:18:06;;;;;;;9.90;9.00;;;22.30;99.90;;;;;;5031304;28;20093;-62
2022/06/30 08:20:32;;;;;;;10.05;9.05;;;22.40;99.90;;;;;;5039881;28;20049;-61
2022/06/30 08:22:58;;;;;;;10.50;8.55;;;22.40;99.90;;;;;;5044100;28;20130;-61
2022/06/30 08:25:24;;;;;;;10.65;8.93;;;22.40;99.90;;;;;;5041371;28;20048;-61
2022/06/30 08:27:50;;;;;;;10.35;9.45;;;22.40;99.90;;;;;;5043462;28;20057;-62
2022/06/30 08:30:16;;;;;;;11.02;9.80;;;22.50;99.90;;;;;;5029736;28;20041;-61
2022/06/30 08:32:43;;;;;;;11.20;10.10;;;22.60;99.90;;;;;;5052017;28;20311;-62
2022/06/30 08:35:08;;;;;;;11.00;8.95;;;22.70;99.90;;;;;;5059746;28;20056;-62
2022/06/30 08:37:35;;;;;;;8.93;8.02;;;22.80;99.90;;;;;;5040698;28;20056;-61
2022/06/30 08:42:46;;;;;;;9.85;8.85;;;22.90;99.90;;;;;;5046037;28;20152;-61
2022/06/30 08:45:13;;;;;;;11.63;10.43;;;22.90;99.90;;;;;;5039730;28;20041;-61
2022/06/30 08:47:39;;;;;;;11.07;10.07;;;23.00;99.90;;;;;;5039630;28;20150;-61
2022/06/30 08:50:08;;;;;;;13.20;10.70;;;23.10;99.90;;;;;;5043942;28;20083;-61
2022/06/30 08:53:00;;;;;;;11.43;10.23;;;23.10;99.90;;;;;;5041023;28;20076;-61
2022/06/30 08:55:28;;;;;;;10.32;9.00;;;23.10;99.90;;;;;;5038399;28;20053;-61
2022/06/30 08:58:07;;;;;;;11.57;10.48;;;23.20;99.90;;;;;;5043129;28;20061;-61
2022/06/30 09:00:33;;;;;;;12.43;11.32;;;23.20;99.90;;;;;;5035974;28;20049;-61
2022/06/30 09:02:59;;;;;;;12.32;11.13;;;23.30;99.90;;;;;;5030972;28;20052;-61
2022/06/30 09:05:25;;;;;;;13.88;12.40;;;23.40;99.90;;;;;;5034402;28;20052;-62
2022/06/30 09:07:51;;;;;;;12.30;11.02;;;23.50;99.90;;;;;;5027351;28;20091;-61
2022/06/30 09:10:16;;;;;;;14.15;10.18;;;23.50;99.90;;;;;;5034598;28;20401;-61
2022/06/30 09:12:59;;;;;;;12.45;11.25;;;23.60;99.90;;;;;;5039266;28;20119;-62
2022/06/30 09:15:27;;;;;;;12.52;11.23;;;23.60;99.90;;;;;;5016616;28;20057;-62
2022/06/30 09:17:54;;;;;;;12.38;10.18;;;23.60;99.90;;;;;;5019230;28;20053;-62
2022/06/30 09:20:35;;;;;;;11.23;10.18;;;23.70;99.90;;;;;;5039455;28;20061;-62
2022/06/30 09:23:19;;;;;;;12.63;10.65;;;23.70;99.90;;;;;;5047765;28;20060;-62
2022/06/30 09:25:50;;;;;;;13.40;11.43;;;23.80;99.90;;;;;;5033975;28;20049;-62
2022/06/30 09:28:36;;;;;;;16.02;12.70;;;23.90;99.90;;;;;;5046707;28;20048;-62
2022/06/30 09:31:02;;;;;;;11.80;10.70;;;23.90;99.90;;;;;;5069039;28;20053;-62
2022/06/30 09:33:41;;;;;;;11.93;10.65;;;23.90;99.90;;;;;;5026544;28;20053;-62
2022/06/30 09:36:21;;;;;;;12.87;11.23;;;24.00;99.90;;;;;;5055491;28;20037;-62
2022/06/30 09:39:10;;;;;;;14.00;12.70;;;24.10;99.90;;;;;;5028237;28;20326;-62
2022/06/30 09:41:41;;;;;;;13.27;11.88;;;24.20;99.90;;;;;;5024790;28;20044;-62
2022/06/30 09:44:14;;;;;;;12.65;11.45;;;24.20;99.90;;;;;;5037334;28;20049;-62
2022/06/30 09:46:57;;;;;;;11.30;10.20;;;24.30;99.90;;;;;;5029119;28;20060;-62
2022/06/30 09:49:34;;;;;;;13.75;12.40;;;24.40;99.90;;;;;;5031458;28;20662;-62
2022/06/30 09:52:04;;;;;;;12.25;11.10;;;24.40;99.90;;;;;;5030383;28;20041;-62
2022/06/30 09:54:35;;;;;;;13.02;11.80;;;24.50;99.90;;;;;;5035457;28;20049;-62
2022/06/30 09:57:06;;;;;;;12.23;11.02;;;24.50;99.90;;;;;;5034488;28;20133;-62
2022/06/30 09:59:32;;;;;;;11.25;10.15;;;24.60;99.90;;;;;;5057323;28;20512;-62
2022/06/30 10:01:59;;;;;;;13.00;11.80;;;24.70;99.90;;;;;;5047696;28;20115;-62
2022/06/30 10:04:25;;;;;;;11.50;10.38;;;24.80;99.90;;;;;;5045290;28;20049;-62
2022/06/30 10:06:52;;;;;;;13.68;12.25;;;24.80;99.90;;;;;;5046955;28;20066;-62
2022/06/30 10:09:18;;;;;;;12.23;10.93;;;24.90;99.90;;;;;;5043922;28;20049;-62
2022/06/30 10:11:46;;;;;;;13.20;11.90;;;25.00;99.90;;;;;;5047875;28;20057;-62
2022/06/30 10:14:15;;;;;;;13.00;10.85;;;25.00;99.90;;;;;;5036729;28;20360;-62
2022/06/30 10:16:42;;;;;;;12.43;11.23;;;25.20;99.90;;;;;;5019040;28;20064;-61
2022/06/30 10:19:09;;;;;;;13.23;12.02;;;25.30;99.90;;;;;;5061753;28;20046;-62
2022/06/30 10:21:39;;;;;;;11.45;10.25;;;25.40;99.90;;;;;;5031547;28;20041;-63
2022/06/30 10:24:06;;;;;;;12.43;11.02;;;25.60;99.90;;;;;;5054309;28;20073;-61
2022/06/30 10:29:18;;;;;;;12.77;11.48;;;25.70;99.90;;;;;;5012999;28;20049;-61
2022/06/30 10:31:54;;;;;;;13.13;11.93;;;25.80;99.90;;;;;;5031360;28;20518;-62
2022/06/30 10:34:24;;;;;;;11.27;10.07;;;25.90;99.90;;;;;;5067898;28;20085;-61
2022/06/30 10:37:07;;;;;;;11.70;10.60;;;25.90;99.90;;;;;;5032977;28;20069;-62
2022/06/30 10:39:43;;;;;;;14.70;13.18;;;25.80;99.90;;;;;;5049244;28;20307;-62
2022/06/30 10:42:09;;;;;;;12.50;11.25;;;25.80;99.90;;;;;;5031733;28;20052;-62
2022/06/30 10:44:35;;;;;;;12.85;11.73;;;25.80;99.90;;;;;;5059342;28;20108;-61
2022/06/30 10:47:06;;;;;;;13.25;11.95;;;25.70;99.90;;;;;;5047582;28;20059;-61
2022/06/30 10:49:32;;;;;;;13.52;12.32;;;25.80;99.90;;;;;;5037845;28;20117;-61
2022/06/30 10:52:18;;;;;;;12.40;11.30;;;25.80;99.90;;;;;;5033384;28;20049;-62
2022/06/30 10:54:45;;;;;;;12.73;11.52;;;25.90;99.90;;;;;;5023273;28;20049;-64
2022/06/30 10:57:12;;;;;;;12.43;11.05;;;26.00;99.90;;;;;;5012744;28;20135;-62
2022/06/30 10:59:43;;;;;;;13.45;12.25;;;26.10;99.90;;;;;;5035786;28;20057;-62
2022/06/30 11:02:12;;;;;;;9.85;8.95;;;26.10;99.90;;;;;;5030115;28;20048;-62
2022/06/30 11:04:47;;;;;;;10.77;9.67;;;26.20;99.90;;;;;;5034355;28;20095;-62
2022/06/30 11:07:19;;;;;;;11.75;10.52;;;26.20;99.90;;;;;;5030576;28;20060;-62
2022/06/30 11:09:47;;;;;;;11.75;10.45;;;26.20;99.90;;;;;;5034502;28;20049;-62
2022/06/30 11:12:17;;;;;;;11.70;10.70;;;26.20;99.90;;;;;;5028365;28;20049;-62
2022/06/30 11:14:48;;;;;;;11.13;10.02;;;26.20;99.90;;;;;;5039166;28;20117;-62
2022/06/30 11:17:18;;;;;;;10.93;9.90;;;26.10;99.90;;;;;;5008677;28;20041;-62
2022/06/30 11:19:44;;;;;;;13.20;12.00;;;26.20;99.90;;;;;;5032454;28;20069;-62
2022/06/30 11:22:15;;;;;;;12.85;11.13;;;26.20;99.90;;;;;;5027683;28;20455;-62
2022/06/30 11:24:44;;;;;;;12.65;11.45;;;26.20;99.90;;;;;;5036614;28;20053;-62
2022/06/30 11:27:22;;;;;;;9.07;8.27;;;26.40;99.90;;;;;;5031261;28;20057;-62
2022/06/30 11:29:48;;;;;;;12.77;11.63;;;26.50;99.90;;;;;;5053275;28;20041;-62
2022/06/30 11:32:14;;;;;;;11.82;10.77;;;26.70;99.90;;;;;;5046165;28;20058;-62
2022/06/30 11:34:43;;;;;;;12.30;11.05;;;26.80;99.90;;;;;;5038368;28;20053;-62
2022/06/30 11:37:09;;;;;;;12.00;10.85;;;27.00;99.90;;;;;;5043386;28;20045;-62
2022/06/30 11:39:35;;;;;;;11.20;10.10;;;27.00;99.90;;;;;;5054952;28;20105;-62
2022/06/30 11:42:06;;;;;;;12.55;11.27;;;27.20;99.90;;;;;;5041620;28;20087;-63
2022/06/30 11:44:37;;;;;;;11.05;9.98;;;27.30;99.90;;;;;;5037592;28;20200;-62
2022/06/30 11:47:06;;;;;;;9.70;8.90;;;27.40;99.90;;;;;;5043182;28;20072;-63
2022/06/30 11:49:45;;;;;;;9.38;8.48;;;27.50;99.90;;;;;;5031949;28;20132;-62
2022/06/30 11:52:15;;;;;;;;;;;27.60;99.90;;;;;;5030193;28;20038;-62
2022/06/30 11:54:50;;;;;;;8.55;7.63;;;27.30;99.90;;;;;;5057523;28;19929;-62
2022/06/30 11:57:16;;;;;;;9.88;7.55;;;27.30;99.90;;;;;;5042143;28;20067;-62
2022/06/30 11:59:46;;;;;;;7.63;6.75;;;27.10;99.90;;;;;;5042525;28;20040;-62
2022/06/30 12:02:12;;;;;;;9.60;8.25;;;27.20;99.90;;;;;;5046511;28;20044;-62
2022/06/30 12:04:41;;;;;;;7.00;6.28;;;27.30;99.90;;;;;;5021628;28;20049;-62
2022/06/30 12:07:08;;;;;;;8.55;7.30;;;27.40;99.90;;;;;;5046746;28;20060;-63
2022/06/30 12:09:35;;;;;;;9.38;8.10;;;27.40;99.90;;;;;;5057528;28;20052;-62
2022/06/30 12:12:03;;;;;;;8.88;7.93;;;27.30;99.90;;;;;;5058668;28;20798;-63
2022/06/30 12:14:33;;;;;;;8.70;7.60;;;27.20;99.90;;;;;;5031295;28;20045;-62
2022/06/30 12:16:58;;;;;;;10.10;7.28;;;27.10;99.90;;;;;;5046044;28;20047;-62
2022/06/30 12:19:25;;;;;;;7.80;7.10;;;27.30;99.90;;;;;;5037098;28;20148;-62
2022/06/30 12:21:55;;;;;;;7.50;6.80;;;27.40;99.90;;;;;;5037222;28;20045;-62
2022/06/30 12:24:24;;;;;;;;;;;27.60;99.90;;;;;;5016209;28;20141;-62
2022/06/30 12:26:56;;;;;;;8.55;7.72;;;27.60;99.90;;;;;;5041170;28;19975;-62
2022/06/30 12:29:23;;;;;;;8.75;7.95;;;27.80;99.90;;;;;;5062489;28;20056;-62
2022/06/30 12:31:59;;;;;;;7.35;5.32;;;27.90;99.90;;;;;;5039440;28;20052;-63
2022/06/30 12:34:25;;;;;;;6.53;5.10;;;28.00;99.90;;;;;;5048118;28;20060;-62
2022/06/30 12:36:51;;;;;;;6.65;5.30;;;28.10;99.90;;;;;;5039329;28;20041;-62
2022/06/30 12:39:17;;;;;;;10.57;8.57;;;28.20;99.90;;;;;;5051865;28;20056;-62
2022/06/30 12:41:43;;;;;;;10.32;9.30;;;28.30;99.90;;;;;;5038815;28;20095;-63
2022/06/30 12:44:13;;;;;;;9.02;5.68;;;28.40;99.90;;;;;;5046094;28;20056;-62
2022/06/30 12:46:47;;;;;;;6.45;5.43;;;28.50;99.90;;;;;;5037515;28;20050;-62
2022/06/30 12:49:23;;;;;;;5.72;5.07;;;28.50;99.90;;;;;;5053380;28;20261;-62
2022/06/30 12:51:49;;;;;;;8.55;5.05;;;28.70;99.90;;;;;;5037003;28;20492;-63
2022/06/30 12:54:21;;;;;;;8.23;5.28;;;28.80;99.90;;;;;;5047271;28;20056;-62
2022/06/30 12:56:50;;;;;;;8.88;5.00;;;28.70;99.90;;;;;;5037512;28;20045;-63
2022/06/30 12:59:18;;;;;;;8.48;7.63;;;28.70;99.90;;;;;;5060185;28;20456;-62
2022/06/30 13:01:50;;;;;;;7.15;6.00;;;28.60;99.90;;;;;;5072774;28;20052;-63
2022/06/30 13:04:16;;;;;;;7.22;6.43;;;28.90;99.90;;;;;;5061448;28;20342;-62
2022/06/30 13:06:44;;;;;;;7.68;6.90;;;28.90;99.90;;;;;;5058778;28;20444;-62